sensor_id;sensor_type;location;lat;lon;timestamp;pressure;altitude;pressure_sealevel;temperature
68510;BMP180;55512;50.102;19.958;2023-02-22T00:00:43;98604.20;;;5.60
68510;BMP180;55512;50.102;19.958;2023-02-22T00:03:14;98605.20;;;5.68
68510;BMP180;55512;50.102;19.958;2023-02-22T00:05:45;98602.80;;;5.60
68510;BMP180;55512;50.102;19.958;2023-02-22T00:08:16;98606.00;;;5.60
68510;BMP180;55512;50.102;19.958;2023-02-22T00:10:42;98600.80;;;5.60
68510;BMP180;55512;50.102;19.958;2023-02-22T00:13:11;98598.20;;;5.60
68510;BMP180;55512;50.102;19.958;2023-02-22T00:15:38;98591.40;;;5.50
68510;BMP180;55512;50.102;19.958;2023-02-22T00:18:07;98600.60;;;5.50
68510;BMP180;55512;50.102;19.958;2023-02-22T00:20:35;98603.00;;;5.50
68510;BMP180;55512;50.102;19.958;2023-02-22T00:23:05;98605.00;;;5.50
68510;BMP180;55512;50.102;19.958;2023-02-22T00:25:35;98602.40;;;5.50
68510;BMP180;55512;50.102;19.958;2023-02-22T00:28:01;98603.60;;;5.50
68510;BMP180;55512;50.102;19.958;2023-02-22T00:30:29;98605.40;;;5.50
68510;BMP180;55512;50.102;19.958;2023-02-22T00:32:56;98602.00;;;5.50
68510;BMP180;55512;50.102;19.958;2023-02-22T00:35:29;98603.40;;;5.46
68510;BMP180;55512;50.102;19.958;2023-02-22T00:37:58;98605.80;;;5.44
68510;BMP180;55512;50.102;19.958;2023-02-22T00:40:29;98612.20;;;5.40
68510;BMP180;55512;50.102;19.958;2023-02-22T00:42:56;98610.20;;;5.40
68510;BMP180;55512;50.102;19.958;2023-02-22T00:45:24;98616.80;;;5.40
68510;BMP180;55512;50.102;19.958;2023-02-22T00:47:52;98612.80;;;5.40
68510;BMP180;55512;50.102;19.958;2023-02-22T00:50:24;98613.80;;;5.42
68510;BMP180;55512;50.102;19.958;2023-02-22T00:52:50;98612.20;;;5.40
68510;BMP180;55512;50.102;19.958;2023-02-22T00:55:21;98614.40;;;5.40
68510;BMP180;55512;50.102;19.958;2023-02-22T00:57:47;98615.40;;;5.40
68510;BMP180;55512;50.102;19.958;2023-02-22T01:00:20;98619.60;;;5.40
68510;BMP180;55512;50.102;19.958;2023-02-22T01:02:46;98619.20;;;5.40
68510;BMP180;55512;50.102;19.958;2023-02-22T01:05:18;98623.00;;;5.40
68510;BMP180;55512;50.102;19.958;2023-02-22T01:07:44;98620.40;;;5.34
68510;BMP180;55512;50.102;19.958;2023-02-22T01:10:11;98625.20;;;5.30
68510;BMP180;55512;50.102;19.958;2023-02-22T01:12:36;98626.60;;;5.36
68510;BMP180;55512;50.102;19.958;2023-02-22T01:15:04;98622.60;;;5.34
68510;BMP180;55512;50.102;19.958;2023-02-22T01:17:30;98628.60;;;5.30
68510;BMP180;55512;50.102;19.958;2023-02-22T01:19:56;98626.40;;;5.34
68510;BMP180;55512;50.102;19.958;2023-02-22T01:22:22;98628.00;;;5.40
68510;BMP180;55512;50.102;19.958;2023-02-22T01:24:49;98629.00;;;5.40
68510;BMP180;55512;50.102;19.958;2023-02-22T01:27:17;98629.40;;;5.40
68510;BMP180;55512;50.102;19.958;2023-02-22T01:29:43;98623.80;;;5.40
68510;BMP180;55512;50.102;19.958;2023-02-22T01:32:09;98626.40;;;5.40
68510;BMP180;55512;50.102;19.958;2023-02-22T01:34:37;98626.40;;;5.40
68510;BMP180;55512;50.102;19.958;2023-02-22T01:37:03;98626.80;;;5.40
68510;BMP180;55512;50.102;19.958;2023-02-22T01:39:30;98627.80;;;5.40
68510;BMP180;55512;50.102;19.958;2023-02-22T01:41:56;98625.60;;;5.40
68510;BMP180;55512;50.102;19.958;2023-02-22T01:44:35;98626.80;;;5.40
68510;BMP180;55512;50.102;19.958;2023-02-22T01:47:04;98624.40;;;5.40
68510;BMP180;55512;50.102;19.958;2023-02-22T01:49:42;98627.80;;;5.40
68510;BMP180;55512;50.102;19.958;2023-02-22T01:52:16;98621.40;;;5.40
68510;BMP180;55512;50.102;19.958;2023-02-22T01:54:56;98625.00;;;5.50
68510;BMP180;55512;50.102;19.958;2023-02-22T01:57:35;98621.60;;;5.48
68510;BMP180;55512;50.102;19.958;2023-02-22T02:00:11;98617.60;;;5.40
68510;BMP180;55512;50.102;19.958;2023-02-22T02:02:43;98615.40;;;5.50
68510;BMP180;55512;50.102;19.958;2023-02-22T02:05:10;98618.20;;;5.50
68510;BMP180;55512;50.102;19.958;2023-02-22T02:07:38;98615.00;;;5.50
68510;BMP180;55512;50.102;19.958;2023-02-22T02:10:08;98616.40;;;5.50
68510;BMP180;55512;50.102;19.958;2023-02-22T02:12:41;98620.00;;;5.50
68510;BMP180;55512;50.102;19.958;2023-02-22T02:15:31;98614.40;;;5.50
68510;BMP180;55512;50.102;19.958;2023-02-22T02:18:00;98616.60;;;5.50
68510;BMP180;55512;50.102;19.958;2023-02-22T02:20:41;98622.00;;;5.46
68510;BMP180;55512;50.102;19.958;2023-02-22T02:24:01;98618.00;;;5.50
68510;BMP180;55512;50.102;19.958;2023-02-22T02:27:04;98620.60;;;5.50
68510;BMP180;55512;50.102;19.958;2023-02-22T02:32:54;98626.00;;;5.46
68510;BMP180;55512;50.102;19.958;2023-02-22T02:38:13;98626.60;;;5.40
68510;BMP180;55512;50.102;19.958;2023-02-22T02:40:48;98624.80;;;5.40
68510;BMP180;55512;50.102;19.958;2023-02-22T02:43:29;98626.00;;;5.36
68510;BMP180;55512;50.102;19.958;2023-02-22T02:46:22;98624.20;;;5.30
68510;BMP180;55512;50.102;19.958;2023-02-22T02:48:55;98626.80;;;5.30
68510;BMP180;55512;50.102;19.958;2023-02-22T02:51:33;98623.80;;;5.20
68510;BMP180;55512;50.102;19.958;2023-02-22T02:54:02;98624.80;;;5.20
68510;BMP180;55512;50.102;19.958;2023-02-22T02:56:29;98624.00;;;5.30
68510;BMP180;55512;50.102;19.958;2023-02-22T02:58:55;98622.00;;;5.30
68510;BMP180;55512;50.102;19.958;2023-02-22T03:01:38;98623.80;;;5.22
68510;BMP180;55512;50.102;19.958;2023-02-22T03:04:37;98624.00;;;5.20
68510;BMP180;55512;50.102;19.958;2023-02-22T03:08:12;98628.60;;;5.24
68510;BMP180;55512;50.102;19.958;2023-02-22T03:10:58;98632.20;;;5.28
68510;BMP180;55512;50.102;19.958;2023-02-22T03:13:32;98637.00;;;5.28
68510;BMP180;55512;50.102;19.958;2023-02-22T03:19:27;98638.80;;;5.24
68510;BMP180;55512;50.102;19.958;2023-02-22T03:22:34;98639.00;;;5.30
68510;BMP180;55512;50.102;19.958;2023-02-22T03:25:10;98637.40;;;5.30
68510;BMP180;55512;50.102;19.958;2023-02-22T03:27:47;98639.40;;;5.20
68510;BMP180;55512;50.102;19.958;2023-02-22T03:30:32;98639.40;;;5.20
68510;BMP180;55512;50.102;19.958;2023-02-22T03:33:07;98643.80;;;5.20
68510;BMP180;55512;50.102;19.958;2023-02-22T03:35:41;98642.60;;;5.20
68510;BMP180;55512;50.102;19.958;2023-02-22T03:38:11;98641.80;;;5.20
68510;BMP180;55512;50.102;19.958;2023-02-22T03:40:44;98646.00;;;5.20
68510;BMP180;55512;50.102;19.958;2023-02-22T03:43:20;98645.40;;;5.20
68510;BMP180;55512;50.102;19.958;2023-02-22T03:45:49;98646.40;;;5.20
68510;BMP180;55512;50.102;19.958;2023-02-22T03:48:49;98643.80;;;5.20
68510;BMP180;55512;50.102;19.958;2023-02-22T03:51:19;98645.20;;;5.20
68510;BMP180;55512;50.102;19.958;2023-02-22T03:53:45;98646.60;;;5.20
68510;BMP180;55512;50.102;19.958;2023-02-22T03:56:36;98646.00;;;5.20
68510;BMP180;55512;50.102;19.958;2023-02-22T03:59:08;98650.00;;;5.20
68510;BMP180;55512;50.102;19.958;2023-02-22T04:01:35;98646.80;;;5.20
68510;BMP180;55512;50.102;19.958;2023-02-22T04:04:02;98648.20;;;5.20
68510;BMP180;55512;50.102;19.958;2023-02-22T04:06:28;98648.20;;;5.20
68510;BMP180;55512;50.102;19.958;2023-02-22T04:08:54;98650.20;;;5.20
68510;BMP180;55512;50.102;19.958;2023-02-22T04:11:20;98653.80;;;5.20
68510;BMP180;55512;50.102;19.958;2023-02-22T04:13:45;98649.20;;;5.20
68510;BMP180;55512;50.102;19.958;2023-02-22T04:16:11;98655.00;;;5.20
68510;BMP180;55512;50.102;19.958;2023-02-22T04:18:36;98656.80;;;5.20
68510;BMP180;55512;50.102;19.958;2023-02-22T04:21:02;98655.60;;;5.28
68510;BMP180;55512;50.102;19.958;2023-02-22T04:23:28;98656.00;;;5.20
68510;BMP180;55512;50.102;19.958;2023-02-22T04:25:53;98657.60;;;5.20
68510;BMP180;55512;50.102;19.958;2023-02-22T04:28:19;98652.80;;;5.20
68510;BMP180;55512;50.102;19.958;2023-02-22T04:30:44;98653.20;;;5.20
68510;BMP180;55512;50.102;19.958;2023-02-22T04:33:11;98658.60;;;5.20
68510;BMP180;55512;50.102;19.958;2023-02-22T04:35:37;98654.60;;;5.20
68510;BMP180;55512;50.102;19.958;2023-02-22T04:38:03;98658.00;;;5.26
68510;BMP180;55512;50.102;19.958;2023-02-22T04:40:29;98656.40;;;5.30
68510;BMP180;55512;50.102;19.958;2023-02-22T04:42:55;98653.60;;;5.30
68510;BMP180;55512;50.102;19.958;2023-02-22T04:45:21;98650.20;;;5.30
68510;BMP180;55512;50.102;19.958;2023-02-22T04:47:46;98658.60;;;5.28
68510;BMP180;55512;50.102;19.958;2023-02-22T04:50:12;98659.00;;;5.28
68510;BMP180;55512;50.102;19.958;2023-02-22T04:52:38;98656.40;;;5.30
68510;BMP180;55512;50.102;19.958;2023-02-22T04:55:04;98656.20;;;5.30
68510;BMP180;55512;50.102;19.958;2023-02-22T04:57:30;98660.60;;;5.30
68510;BMP180;55512;50.102;19.958;2023-02-22T04:59:55;98663.20;;;5.30
68510;BMP180;55512;50.102;19.958;2023-02-22T05:02:21;98664.20;;;5.30
68510;BMP180;55512;50.102;19.958;2023-02-22T05:04:46;98663.00;;;5.30
68510;BMP180;55512;50.102;19.958;2023-02-22T05:07:12;98659.00;;;5.28
68510;BMP180;55512;50.102;19.958;2023-02-22T05:09:37;98660.40;;;5.20
68510;BMP180;55512;50.102;19.958;2023-02-22T05:12:03;98655.00;;;5.20
68510;BMP180;55512;50.102;19.958;2023-02-22T05:14:29;98649.20;;;5.20
68510;BMP180;55512;50.102;19.958;2023-02-22T05:16:56;98651.00;;;5.20
68510;BMP180;55512;50.102;19.958;2023-02-22T05:19:22;98652.40;;;5.20
68510;BMP180;55512;50.102;19.958;2023-02-22T05:21:48;98656.40;;;5.30
68510;BMP180;55512;50.102;19.958;2023-02-22T05:24:14;98657.00;;;5.28
68510;BMP180;55512;50.102;19.958;2023-02-22T05:26:43;98657.80;;;5.26
68510;BMP180;55512;50.102;19.958;2023-02-22T05:29:08;98662.20;;;5.30
68510;BMP180;55512;50.102;19.958;2023-02-22T05:31:33;98660.60;;;5.30
68510;BMP180;55512;50.102;19.958;2023-02-22T05:33:59;98668.80;;;5.30
68510;BMP180;55512;50.102;19.958;2023-02-22T05:36:24;98674.80;;;5.30
68510;BMP180;55512;50.102;19.958;2023-02-22T05:38:50;98675.60;;;5.22
68510;BMP180;55512;50.102;19.958;2023-02-22T05:41:15;98675.20;;;5.24
68510;BMP180;55512;50.102;19.958;2023-02-22T05:43:41;98675.60;;;5.20
68510;BMP180;55512;50.102;19.958;2023-02-22T05:46:07;98674.80;;;5.20
68510;BMP180;55512;50.102;19.958;2023-02-22T05:48:33;98681.40;;;5.16
68510;BMP180;55512;50.102;19.958;2023-02-22T05:50:58;98679.00;;;5.18
68510;BMP180;55512;50.102;19.958;2023-02-22T05:53:24;98677.40;;;5.20
68510;BMP180;55512;50.102;19.958;2023-02-22T05:55:51;98685.40;;;5.20
68510;BMP180;55512;50.102;19.958;2023-02-22T05:58:16;98684.00;;;5.20
68510;BMP180;55512;50.102;19.958;2023-02-22T06:00:42;98694.00;;;5.20
68510;BMP180;55512;50.102;19.958;2023-02-22T06:03:10;98705.40;;;5.20
68510;BMP180;55512;50.102;19.958;2023-02-22T06:05:36;98704.60;;;5.20
68510;BMP180;55512;50.102;19.958;2023-02-22T06:08:04;98707.40;;;5.20
68510;BMP180;55512;50.102;19.958;2023-02-22T06:10:30;98707.20;;;5.20
68510;BMP180;55512;50.102;19.958;2023-02-22T06:12:58;98709.60;;;5.20
68510;BMP180;55512;50.102;19.958;2023-02-22T06:15:25;98708.40;;;5.10
68510;BMP180;55512;50.102;19.958;2023-02-22T06:17:52;98713.00;;;5.10
68510;BMP180;55512;50.102;19.958;2023-02-22T06:20:22;98711.00;;;5.20
68510;BMP180;55512;50.102;19.958;2023-02-22T06:22:50;98715.60;;;5.18
68510;BMP180;55512;50.102;19.958;2023-02-22T06:25:20;98720.60;;;5.20
68510;BMP180;55512;50.102;19.958;2023-02-22T06:27:46;98726.40;;;5.20
68510;BMP180;55512;50.102;19.958;2023-02-22T06:30:14;98727.40;;;5.20
68510;BMP180;55512;50.102;19.958;2023-02-22T06:32:40;98727.20;;;5.20
68510;BMP180;55512;50.102;19.958;2023-02-22T06:35:06;98727.60;;;5.20
68510;BMP180;55512;50.102;19.958;2023-02-22T06:37:32;98733.00;;;5.20
68510;BMP180;55512;50.102;19.958;2023-02-22T06:39:58;98731.20;;;5.20
68510;BMP180;55512;50.102;19.958;2023-02-22T06:42:23;98735.80;;;5.20
68510;BMP180;55512;50.102;19.958;2023-02-22T06:44:49;98735.00;;;5.20
68510;BMP180;55512;50.102;19.958;2023-02-22T06:47:14;98738.60;;;5.20
68510;BMP180;55512;50.102;19.958;2023-02-22T06:49:40;98739.80;;;5.20
68510;BMP180;55512;50.102;19.958;2023-02-22T06:52:07;98738.60;;;5.26
68510;BMP180;55512;50.102;19.958;2023-02-22T06:54:34;98742.00;;;5.30
68510;BMP180;55512;50.102;19.958;2023-02-22T06:57:00;98743.80;;;5.30
68510;BMP180;55512;50.102;19.958;2023-02-22T06:59:25;98750.80;;;5.30
68510;BMP180;55512;50.102;19.958;2023-02-22T07:01:52;98749.60;;;5.30
68510;BMP180;55512;50.102;19.958;2023-02-22T07:04:19;98748.40;;;5.30
68510;BMP180;55512;50.102;19.958;2023-02-22T07:06:49;98748.60;;;5.30
68510;BMP180;55512;50.102;19.958;2023-02-22T07:09:16;98747.20;;;5.30
68510;BMP180;55512;50.102;19.958;2023-02-22T07:11:42;98751.60;;;5.30
68510;BMP180;55512;50.102;19.958;2023-02-22T07:14:09;98752.40;;;5.30
68510;BMP180;55512;50.102;19.958;2023-02-22T07:16:35;98752.00;;;5.30
68510;BMP180;55512;50.102;19.958;2023-02-22T07:19:00;98756.20;;;5.30
68510;BMP180;55512;50.102;19.958;2023-02-22T07:21:28;98753.60;;;5.40
68510;BMP180;55512;50.102;19.958;2023-02-22T07:23:56;98755.00;;;5.40
68510;BMP180;55512;50.102;19.958;2023-02-22T07:26:22;98751.80;;;5.40
68510;BMP180;55512;50.102;19.958;2023-02-22T07:28:48;98756.20;;;5.48
68510;BMP180;55512;50.102;19.958;2023-02-22T07:31:14;98758.00;;;5.46
68510;BMP180;55512;50.102;19.958;2023-02-22T07:33:40;98755.40;;;5.50
68510;BMP180;55512;50.102;19.958;2023-02-22T07:36:06;98760.40;;;5.50
68510;BMP180;55512;50.102;19.958;2023-02-22T07:38:32;98755.80;;;5.56
68510;BMP180;55512;50.102;19.958;2023-02-22T07:40:58;98753.40;;;5.60
68510;BMP180;55512;50.102;19.958;2023-02-22T07:43:27;98757.60;;;5.70
68510;BMP180;55512;50.102;19.958;2023-02-22T07:45:57;98758.00;;;5.70
68510;BMP180;55512;50.102;19.958;2023-02-22T07:48:26;98755.80;;;5.80
68510;BMP180;55512;50.102;19.958;2023-02-22T07:50:53;98753.00;;;5.82
68510;BMP180;55512;50.102;19.958;2023-02-22T07:53:21;98754.20;;;5.90
68510;BMP180;55512;50.102;19.958;2023-02-22T07:55:48;98760.80;;;5.96
68510;BMP180;55512;50.102;19.958;2023-02-22T07:58:22;98763.00;;;6.00
68510;BMP180;55512;50.102;19.958;2023-02-22T08:00:47;98763.60;;;6.00
68510;BMP180;55512;50.102;19.958;2023-02-22T08:03:16;98766.00;;;6.10
68510;BMP180;55512;50.102;19.958;2023-02-22T08:05:50;98764.00;;;6.10
68510;BMP180;55512;50.102;19.958;2023-02-22T08:08:16;98766.40;;;6.14
68510;BMP180;55512;50.102;19.958;2023-02-22T08:10:43;98767.40;;;6.20
68510;BMP180;55512;50.102;19.958;2023-02-22T08:13:09;98769.40;;;6.26
68510;BMP180;55512;50.102;19.958;2023-02-22T08:15:40;98765.00;;;6.30
68510;BMP180;55512;50.102;19.958;2023-02-22T08:18:09;98768.80;;;6.34
68510;BMP180;55512;50.102;19.958;2023-02-22T08:20:37;98767.60;;;6.40
68510;BMP180;55512;50.102;19.958;2023-02-22T08:23:05;98772.40;;;6.40
68510;BMP180;55512;50.102;19.958;2023-02-22T08:25:30;98770.00;;;6.44
68510;BMP180;55512;50.102;19.958;2023-02-22T08:28:19;98771.40;;;6.50
68510;BMP180;55512;50.102;19.958;2023-02-22T08:30:45;98772.00;;;6.60
68510;BMP180;55512;50.102;19.958;2023-02-22T08:33:14;98773.80;;;6.60
68510;BMP180;55512;50.102;19.958;2023-02-22T08:35:43;98774.20;;;6.70
68510;BMP180;55512;50.102;19.958;2023-02-22T08:38:28;98775.00;;;6.80
68510;BMP180;55512;50.102;19.958;2023-02-22T08:40:55;98773.80;;;6.88
68510;BMP180;55512;50.102;19.958;2023-02-22T08:43:21;98775.20;;;6.90
68510;BMP180;55512;50.102;19.958;2023-02-22T08:45:48;98779.00;;;6.90
68510;BMP180;55512;50.102;19.958;2023-02-22T08:48:15;98776.20;;;6.92
68510;BMP180;55512;50.102;19.958;2023-02-22T08:50:41;98775.20;;;7.00
68510;BMP180;55512;50.102;19.958;2023-02-22T08:53:09;98776.20;;;7.00
68510;BMP180;55512;50.102;19.958;2023-02-22T08:55:37;98773.00;;;7.00
68510;BMP180;55512;50.102;19.958;2023-02-22T08:58:05;98776.80;;;7.04
68510;BMP180;55512;50.102;19.958;2023-02-22T09:00:34;98776.00;;;7.10
68510;BMP180;55512;50.102;19.958;2023-02-22T09:03:07;98777.80;;;7.12
68510;BMP180;55512;50.102;19.958;2023-02-22T09:05:33;98779.00;;;7.12
68510;BMP180;55512;50.102;19.958;2023-02-22T09:07:59;98783.60;;;7.20
68510;BMP180;55512;50.102;19.958;2023-02-22T09:10:30;98781.20;;;7.20
68510;BMP180;55512;50.102;19.958;2023-02-22T09:12:56;98778.00;;;7.20
68510;BMP180;55512;50.102;19.958;2023-02-22T09:15:24;98784.40;;;7.30
68510;BMP180;55512;50.102;19.958;2023-02-22T09:17:51;98784.00;;;7.30
68510;BMP180;55512;50.102;19.958;2023-02-22T09:20:19;98780.00;;;7.40
68510;BMP180;55512;50.102;19.958;2023-02-22T09:22:47;98786.80;;;7.48
68510;BMP180;55512;50.102;19.958;2023-02-22T09:25:14;98787.40;;;7.50
68510;BMP180;55512;50.102;19.958;2023-02-22T09:27:40;98785.20;;;7.40
68510;BMP180;55512;50.102;19.958;2023-02-22T09:30:15;98785.20;;;7.46
68510;BMP180;55512;50.102;19.958;2023-02-22T09:32:41;98783.60;;;7.50
68510;BMP180;55512;50.102;19.958;2023-02-22T09:35:06;98778.80;;;7.60
68510;BMP180;55512;50.102;19.958;2023-02-22T09:37:33;98790.40;;;7.60
68510;BMP180;55512;50.102;19.958;2023-02-22T09:39:58;98782.40;;;7.60
68510;BMP180;55512;50.102;19.958;2023-02-22T09:42:40;98779.60;;;7.60
68510;BMP180;55512;50.102;19.958;2023-02-22T09:45:27;98779.80;;;7.60
68510;BMP180;55512;50.102;19.958;2023-02-22T09:47:59;98780.20;;;7.60
68510;BMP180;55512;50.102;19.958;2023-02-22T09:50:36;98777.80;;;7.60
68510;BMP180;55512;50.102;19.958;2023-02-22T09:53:24;98785.80;;;7.60
68510;BMP180;55512;50.102;19.958;2023-02-22T09:55:59;98785.20;;;7.60
68510;BMP180;55512;50.102;19.958;2023-02-22T09:58:37;98785.00;;;7.58
68510;BMP180;55512;50.102;19.958;2023-02-22T10:01:34;98780.20;;;7.50
68510;BMP180;55512;50.102;19.958;2023-02-22T10:04:46;98781.20;;;7.50
68510;BMP180;55512;50.102;19.958;2023-02-22T10:07:17;98775.40;;;7.50
68510;BMP180;55512;50.102;19.958;2023-02-22T10:09:46;98777.60;;;7.58
68510;BMP180;55512;50.102;19.958;2023-02-22T10:15:45;98777.80;;;7.60
68510;BMP180;55512;50.102;19.958;2023-02-22T10:21:46;98770.00;;;7.62
68510;BMP180;55512;50.102;19.958;2023-02-22T10:27:41;98765.80;;;7.70
68510;BMP180;55512;50.102;19.958;2023-02-22T10:30:19;98761.20;;;7.80
68510;BMP180;55512;50.102;19.958;2023-02-22T10:33:14;98762.20;;;7.80
68510;BMP180;55512;50.102;19.958;2023-02-22T10:35:38;98761.00;;;7.90
68510;BMP180;55512;50.102;19.958;2023-02-22T10:38:33;98764.00;;;7.90
68510;BMP180;55512;50.102;19.958;2023-02-22T10:41:19;98759.40;;;7.92
68510;BMP180;55512;50.102;19.958;2023-02-22T10:43:48;98767.20;;;8.00
68510;BMP180;55512;50.102;19.958;2023-02-22T10:46:17;98762.60;;;8.00
68510;BMP180;55512;50.102;19.958;2023-02-22T10:48:49;98760.60;;;8.10
68510;BMP180;55512;50.102;19.958;2023-02-22T10:51:16;98759.40;;;8.20
68510;BMP180;55512;50.102;19.958;2023-02-22T10:53:41;98759.00;;;8.22
68510;BMP180;55512;50.102;19.958;2023-02-22T10:56:22;98761.00;;;8.30
68510;BMP180;55512;50.102;19.958;2023-02-22T10:58:54;98762.20;;;8.40
68510;BMP180;55512;50.102;19.958;2023-02-22T11:04:15;98759.60;;;8.50
68510;BMP180;55512;50.102;19.958;2023-02-22T11:06:54;98770.00;;;8.50
68510;BMP180;55512;50.102;19.958;2023-02-22T11:09:47;98761.80;;;8.40
68510;BMP180;55512;50.102;19.958;2023-02-22T11:12:37;98760.80;;;8.40
68510;BMP180;55512;50.102;19.958;2023-02-22T11:17:50;98759.40;;;8.50
68510;BMP180;55512;50.102;19.958;2023-02-22T11:20:29;98759.80;;;8.50
68510;BMP180;55512;50.102;19.958;2023-02-22T11:23:02;98761.60;;;8.50
68510;BMP180;55512;50.102;19.958;2023-02-22T11:25:35;98761.80;;;8.50
68510;BMP180;55512;50.102;19.958;2023-02-22T11:28:25;98763.20;;;8.40
68510;BMP180;55512;50.102;19.958;2023-02-22T11:30:58;98757.60;;;8.38
68510;BMP180;55512;50.102;19.958;2023-02-22T11:33:33;98762.80;;;8.40
68510;BMP180;55512;50.102;19.958;2023-02-22T11:36:02;98758.80;;;8.40
68510;BMP180;55512;50.102;19.958;2023-02-22T11:38:37;98764.80;;;8.40
68510;BMP180;55512;50.102;19.958;2023-02-22T11:43:46;98757.80;;;8.50
68510;BMP180;55512;50.102;19.958;2023-02-22T11:46:21;98759.20;;;8.50
68510;BMP180;55512;50.102;19.958;2023-02-22T11:49:08;98764.20;;;8.48
68510;BMP180;55512;50.102;19.958;2023-02-22T11:57:24;98748.80;;;8.60
68510;BMP180;55512;50.102;19.958;2023-02-22T12:03:17;98753.40;;;8.60
68510;BMP180;55512;50.102;19.958;2023-02-22T12:09:34;98752.00;;;8.60
68510;BMP180;55512;50.102;19.958;2023-02-22T12:15:13;98754.00;;;8.70
68510;BMP180;55512;50.102;19.958;2023-02-22T12:17:56;98758.20;;;8.80
68510;BMP180;55512;50.102;19.958;2023-02-22T12:20:59;98750.40;;;8.80
68510;BMP180;55512;50.102;19.958;2023-02-22T12:24:01;98753.00;;;8.80
68510;BMP180;55512;50.102;19.958;2023-02-22T12:26:35;98748.80;;;8.82
68510;BMP180;55512;50.102;19.958;2023-02-22T12:29:30;98749.20;;;8.90
68510;BMP180;55512;50.102;19.958;2023-02-22T12:32:03;98746.20;;;8.88
68510;BMP180;55512;50.102;19.958;2023-02-22T12:34:41;98737.40;;;8.88
68510;BMP180;55512;50.102;19.958;2023-02-22T12:37:39;98746.80;;;8.92
68510;BMP180;55512;50.102;19.958;2023-02-22T12:43:42;98734.00;;;8.96
68510;BMP180;55512;50.102;19.958;2023-02-22T12:46:35;98734.60;;;9.00
68510;BMP180;55512;50.102;19.958;2023-02-22T12:49:24;98735.00;;;9.00
68510;BMP180;55512;50.102;19.958;2023-02-22T12:55:20;98739.60;;;9.30
68510;BMP180;55512;50.102;19.958;2023-02-22T12:58:09;98734.60;;;9.30
68510;BMP180;55512;50.102;19.958;2023-02-22T13:01:02;98746.40;;;9.30
68510;BMP180;55512;50.102;19.958;2023-02-22T13:03:41;98739.60;;;9.20
68510;BMP180;55512;50.102;19.958;2023-02-22T13:09:36;98738.60;;;9.30
68510;BMP180;55512;50.102;19.958;2023-02-22T13:18:27;98732.00;;;9.20
68510;BMP180;55512;50.102;19.958;2023-02-22T13:21:10;98739.20;;;9.10
68510;BMP180;55512;50.102;19.958;2023-02-22T13:23:47;98732.80;;;9.10
68510;BMP180;55512;50.102;19.958;2023-02-22T13:26:42;98736.60;;;9.20
68510;BMP180;55512;50.102;19.958;2023-02-22T13:29:20;98743.20;;;9.20
68510;BMP180;55512;50.102;19.958;2023-02-22T13:38:12;98741.00;;;8.90
68510;BMP180;55512;50.102;19.958;2023-02-22T13:42:02;98738.20;;;8.80
68510;BMP180;55512;50.102;19.958;2023-02-22T13:47:28;98738.40;;;8.80
68510;BMP180;55512;50.102;19.958;2023-02-22T13:50:30;98739.00;;;8.80
68510;BMP180;55512;50.102;19.958;2023-02-22T13:53:02;98737.00;;;8.80
68510;BMP180;55512;50.102;19.958;2023-02-22T13:55:32;98740.40;;;8.80
68510;BMP180;55512;50.102;19.958;2023-02-22T13:58:08;98739.20;;;8.80
68510;BMP180;55512;50.102;19.958;2023-02-22T14:00:58;98741.60;;;8.80
68510;BMP180;55512;50.102;19.958;2023-02-22T14:06:05;98740.20;;;8.80
68510;BMP180;55512;50.102;19.958;2023-02-22T14:16:26;98742.60;;;8.90
68510;BMP180;55512;50.102;19.958;2023-02-22T14:19:18;98749.60;;;8.92
68510;BMP180;55512;50.102;19.958;2023-02-22T14:22:00;98747.40;;;9.00
68510;BMP180;55512;50.102;19.958;2023-02-22T14:24:42;98743.60;;;9.00
68510;BMP180;55512;50.102;19.958;2023-02-22T14:27:08;98740.80;;;9.00
68510;BMP180;55512;50.102;19.958;2023-02-22T14:29:35;98746.00;;;9.00
68510;BMP180;55512;50.102;19.958;2023-02-22T14:32:07;98739.40;;;8.90
68510;BMP180;55512;50.102;19.958;2023-02-22T14:34:52;98743.20;;;8.80
68510;BMP180;55512;50.102;19.958;2023-02-22T14:37:24;98739.60;;;8.78
68510;BMP180;55512;50.102;19.958;2023-02-22T14:40:30;98742.00;;;8.70
68510;BMP180;55512;50.102;19.958;2023-02-22T14:43:07;98744.40;;;8.70
68510;BMP180;55512;50.102;19.958;2023-02-22T14:45:42;98742.20;;;8.60
68510;BMP180;55512;50.102;19.958;2023-02-22T14:48:36;98747.80;;;8.60
68510;BMP180;55512;50.102;19.958;2023-02-22T14:51:25;98747.20;;;8.60
68510;BMP180;55512;50.102;19.958;2023-02-22T14:54:27;98751.40;;;9.00
68510;BMP180;55512;50.102;19.958;2023-02-22T14:57:08;98758.20;;;9.14
68510;BMP180;55512;50.102;19.958;2023-02-22T15:00:00;98760.20;;;9.20
68510;BMP180;55512;50.102;19.958;2023-02-22T15:02:38;98756.60;;;9.20
68510;BMP180;55512;50.102;19.958;2023-02-22T15:05:06;98759.80;;;9.20
68510;BMP180;55512;50.102;19.958;2023-02-22T15:07:31;98757.40;;;9.20
68510;BMP180;55512;50.102;19.958;2023-02-22T15:10:26;98758.20;;;9.10
68510;BMP180;55512;50.102;19.958;2023-02-22T15:13:05;98758.80;;;9.00
68510;BMP180;55512;50.102;19.958;2023-02-22T15:15:44;98755.40;;;8.90
68510;BMP180;55512;50.102;19.958;2023-02-22T15:18:39;98753.60;;;8.70
68510;BMP180;55512;50.102;19.958;2023-02-22T15:21:22;98752.60;;;8.60
68510;BMP180;55512;50.102;19.958;2023-02-22T15:23:51;98748.40;;;8.40
68510;BMP180;55512;50.102;19.958;2023-02-22T15:26:25;98746.80;;;8.36
68510;BMP180;55512;50.102;19.958;2023-02-22T15:28:57;98745.80;;;8.30
68510;BMP180;55512;50.102;19.958;2023-02-22T15:31:32;98744.40;;;8.20
68510;BMP180;55512;50.102;19.958;2023-02-22T15:36:41;98745.40;;;8.10
68510;BMP180;55512;50.102;19.958;2023-02-22T15:39:30;98751.00;;;8.00
68510;BMP180;55512;50.102;19.958;2023-02-22T15:42:09;98748.20;;;7.96
68510;BMP180;55512;50.102;19.958;2023-02-22T15:44:46;98745.60;;;7.80
68510;BMP180;55512;50.102;19.958;2023-02-22T15:47:25;98739.20;;;7.64
68510;BMP180;55512;50.102;19.958;2023-02-22T15:50:25;98742.00;;;7.46
68510;BMP180;55512;50.102;19.958;2023-02-22T15:55:45;98736.40;;;7.24
68510;BMP180;55512;50.102;19.958;2023-02-22T16:00:58;98735.00;;;7.10
68510;BMP180;55512;50.102;19.958;2023-02-22T16:03:24;98733.20;;;7.06
68510;BMP180;55512;50.102;19.958;2023-02-22T16:05:58;98734.60;;;7.00
68510;BMP180;55512;50.102;19.958;2023-02-22T16:08:40;98736.00;;;6.96
68510;BMP180;55512;50.102;19.958;2023-02-22T16:11:29;98742.00;;;6.80